ADDS METAR Data INFO
IDs: Format: Raw Decoded Include TAF

Data at: 1106 UTC 24 Nov 2017

KCPR 241053Z AUTO 22020KT 10SM CLR 09/01 A2976 RMK AO2 PK WND 23030/1029 SLP041 T00940006
KCPR 240953Z AUTO 23017KT 10SM CLR 10/00 A2979 RMK AO2 SLP047 T01000000
KCPR 240853Z AUTO 23014KT 10SM CLR 10/01 A2981 RMK AO2 PK WND 22030/0754 SLP053 T01000011 56012
KCPR 240753Z AUTO 22026G33KT 10SM CLR 11/01 A2982 RMK AO2 PK WND 22033/0743 SLP058 T01110011
KCPR 240653Z AUTO 22023G30KT 10SM CLR 12/02 A2982 RMK AO2 PK WND 22032/0642 SLP058 T01170017 401500056
KCPR 240553Z AUTO 23019KT 10SM CLR 12/01 A2985 RMK AO2 PK WND 22027/0527 SLP071 T01170011 10139 20117 58014
KCPR 240453Z AUTO 23021KT 10SM CLR 13/02 A2988 RMK AO2 PK WND 22031/0411 SLP080 T01280017
KCPR 240353Z AUTO 22020KT 10SM CLR 13/02 A2989 RMK AO2 PK WND 21027/0322 SLP086 T01280022
KCPR 240253Z 22016KT 10SM CLR 13/02 A2990 RMK AO2 PK WND 23026/0200 SLP094 T01280022 58016
KCPR 240153Z 23020G26KT 10SM CLR 14/02 A2992 RMK AO2 PK WND 23028/0109 SLP102 T01390022
KCPR 240053Z 23014G18KT 10SM CLR 13/03 A2994 RMK AO2 SLP111 T01280028
KCPR 232353Z 24014KT 10SM CLR 13/02 A2995 RMK AO2 SLP115 60000 T01280022 10150 20128 56011
KCPR 232253Z 24015KT 10SM CLR 14/02 A2996 RMK AO2 SLP115 T01390022
KCPR 232153Z 24016KT 10SM CLR 15/02 A2998 RMK AO2 PK WND 24028/2120 SLP118 T01500022
KCPR 232053Z 24020G29KT 10SM CLR 15/02 A2999 RMK AO2 PK WND 23031/2010 SLP124 60000 T01500017 58023
KCPR 231953Z 22020G27KT 10SM CLR 13/02 A3002 RMK AO2 PK WND 21027/1939 SLP140 T01330022
KCPR 231853Z 23018KT 10SM CLR 14/03 A3005 RMK AO2 PK WND 22032/1758 RAB1758E03 SLP152 P0000 T01390028
KCPR 231753Z 23026G31KT 10SM CLR 13/03 A3007 RMK AO2 PK WND 23031/1751 SLP158 T01280028 10128 20067 58020
KCPR 231653Z 23024G31KT 10SM CLR 11/02 A3010 RMK AO2 PK WND 22031/1651 SLP170 T01110022
KCPR 231553Z 22023G28KT 10SM CLR 11/02 A3012 RMK AO2 PK WND 21029/1501 SLP178 T01060022
KCPR 231453Z 21020KT 10SM CLR 08/02 A3014 RMK AO2 SLP184 T00830022 58013
KCPR 231353Z 21013KT 10SM CLR 07/02 A3015 RMK AO2 SLP195 T00720022
KCPR 231253Z 21015KT 10SM CLR 07/02 A3017 RMK AO2 SLP197 T00720022
KCPR 231153Z 23013KT 10SM CLR 07/02 A3018 RMK AO2 SLP200 T00720022 10083 20039 55013
KCPR 231053Z AUTO 22008KT 10SM CLR 07/02 A3017 RMK AO2 SLP192 T00720022
KCPR 230953Z AUTO 22011KT 10SM CLR 08/02 A3021 RMK AO2 SLP200 T00780022
KCPR 230853Z AUTO 23007KT 10SM CLR 07/03 A3022 RMK AO2 SLP209 T00720028 58007
KCPR 230753Z AUTO 24006KT 10SM CLR 06/02 A3024 RMK AO2 SLP217 T00560022
KCPR 230653Z AUTO 24007KT 10SM CLR 04/02 A3024 RMK AO2 SLP219 T00440017 401500039
KCPR 230553Z AUTO 25008KT 10SM CLR 06/02 A3025 RMK AO2 SLP219 T00610022 10100 20056 50000
KCPR 230453Z AUTO 22008KT 10SM CLR 06/02 A3025 RMK AO2 SLP223 T00610022
KCPR 230353Z AUTO 23005KT 10SM CLR 07/03 A3025 RMK AO2 SLP225 T00670028
KCPR 230253Z 24010KT 10SM CLR 09/03 A3025 RMK AO2 SLP224 T00890033 53006
KCPR 230153Z 23008KT 10SM CLR 08/03 A3024 RMK AO2 SLP222 T00830033
KCPR 230053Z 22011KT 10SM CLR 09/03 A3023 RMK AO2 SLP220 T00890033
KCPR 222353Z 21011KT 10SM CLR 10/03 A3023 RMK AO2 SLP216 T01000033 10150 20100 53001